Startpagina
METAR-TAF:

METAR-TAF

Vliegvelden :

Mendoza, Argentinië

breedte: 32-50S, lengte: 068-47W, hoogte: 705 m

Actueel weer

Dit bericht is 34 minuten geleden gemaakt, om 23:00 UTC
Wind 5 kt uit het zuidoosten
Temperatuur 29°C
Vochtigheid 37%
Druk 1007 hPa
Zicht 10 km of meer
geen wolken onder 1500 m en geen cumulonimbus

METAR: SAME 242300Z 14005KT CAVOK 29/13 Q1007

Tijdstip: 20:34 (23:34 UTC)

Verwachting

Dit bericht is 6 uur en het 34 minuten geleden gemaakt, om 17:00 UTC
Verwachting geldig van 24 om 18 UTC tot 25 om 18 UTC
Wind 10 kt uit het zuidzuidoosten
Zicht 10 km of meer
Weinig wolken op 4000 ft
Kans 40% :
Tijdelijke
van 25 om 01 UTC tot 25 om 04 UTC
Zicht: 6000 m
Gebroken wolken op 3000 ft
Weinig wolken op 4000 ft, Cumulonimbus.
onweer, regen
Wijzigt naar
van 25 om 04 UTC tot 25 om 06 UTC
Wind 3 kt uit variabele richting

TAF: SAME 241700Z 2418/2518 16010KT 9999 FEW040 TX33/2420Z TN16/2510Z PROB40 TEMPO 2501/2504 6000 TSRA BKN030 FEW040CB BECMG 2504/2506 VRB03KT

Waarnemingen en weersverwachtingen van meer dan 4000 vliegvelden (METAR en TAF).

De beschikbare stations zijn de gele en rode punten op de kaart.

Ga met uw muis naar het station om de naam te zien.

Klik dan om waarnemingen en weersverwachtingen te zien.

kaart wijzigen: klik op de groene knoppen met een zwart kruis om in te zoomen, op de groene knop met een streepje om uit te zoomen of op de groene pijlen voor aangrenzende kaarten.


METAR-TAF: